首页
METAR-TAF:

METAR-TAF

机场 :

突尼斯-迦太基国际机场

突尼斯, 突尼斯

纬度: 36-50N, 经度: 010-14E, 海拔: 3米

当前天气观测

该预报发布于37分钟前的07:30 UTC
风速6节,风向西南,在西之间变化
温度 27°C
湿度 42%
气压 1015 hPa
能见度10公里或以上
1500米以下无云,无积雨云

METAR: DTTA 230730Z 22006KT 190V260 CAVOK 27/13 Q1015 NOSIG

时间: 09:07 (08:07 UTC)

预报

该预报发布于3小时和7分钟前的05:00 UTC
预报有效从23日的 06点(UTC)到 24日的 06点(UTC)
风速5节,风向西南
能见度10公里或以上
1500米以下无云,无积雨云
成为
从 23日的 13点(UTC)到 23日的 15点(UTC)
风速14节,风向西北
成为
从 23日的 17点(UTC)到 23日的 19点(UTC)
风速4节,风向西转西北

TAF: DTTA 230500Z 2306/2406 23005KT CAVOK BECMG 2313/2315 31014KT BECMG 2317/2319 30004KT

超过4000个机场的气象观测和天气预报(METAR&TAF报告)。

可查询的气象台以黄色和红色小点在地图上表示。

将鼠标移到小点上方,可查看气象台名称。

然后点击查看天气观测和预报。

如需切换地图:点击带黑十字的绿色按钮放大地图;点击带横线的绿色按钮缩小地图;或者点击绿色箭头查看邻近地区的地图。


METAR-TAF: